Time;durP1;ratioP1;P1;durP2;ratioP2;P2;SDS_P1;SDS_P2;PMS_P1;PMS_P2;Temp;Humidity;BMP_temperature;BMP_pressure;BME280_temperature;BME280_humidity;BME280_pressure;Samples;Min_cycle;Max_cycle;Signal;HPM_P1;HPM_P2
2021/07/03 00:02:22;;;;;;;8.75;6.00;;;22.30;99.90;;;;;;5014813;28;20025;-93
2021/07/03 00:04:48;;;;;;;7.65;5.82;;;22.30;99.90;;;;;;5013894;28;20030;-92
2021/07/03 00:07:13;;;;;;;6.35;5.75;;;22.40;99.90;;;;;;5013783;28;20108;-92
2021/07/03 00:09:39;;;;;;;6.88;5.70;;;22.40;99.90;;;;;;5014084;28;20469;-92
2021/07/03 00:20:18;;;;;;;7.40;6.13;;;22.10;99.90;;;;;;5012645;28;20057;-92
2021/07/03 00:22:44;;;;;;;6.70;6.03;;;22.20;99.90;;;;;;5014306;28;20029;-92
2021/07/03 00:25:11;;;;;;;6.55;5.90;;;22.20;99.90;;;;;;5013107;28;20227;-91
2021/07/03 00:27:37;;;;;;;7.47;6.30;;;22.20;99.90;;;;;;5015034;28;20033;-92
2021/07/03 00:30:03;;;;;;;7.30;6.35;;;22.20;99.90;;;;;;5013376;28;20080;-91
2021/07/03 00:32:29;;;;;;;7.78;5.82;;;22.30;99.90;;;;;;5014681;28;20029;-92
2021/07/03 00:34:55;;;;;;;7.53;5.65;;;22.30;99.90;;;;;;5014642;28;20037;-92
2021/07/03 00:37:21;;;;;;;6.53;6.03;;;22.20;99.90;;;;;;5014472;28;20060;-92
2021/07/03 00:39:47;;;;;;;6.50;5.90;;;22.20;99.90;;;;;;5013144;28;20033;-91
2021/07/03 00:42:12;;;;;;;7.25;6.47;;;22.10;99.90;;;;;;5014171;28;20029;-92
2021/07/03 00:44:38;;;;;;;6.90;6.18;;;22.20;99.90;;;;;;5013369;28;20030;-93
2021/07/03 00:47:06;;;;;;;7.93;6.28;;;22.20;99.90;;;;;;5012879;28;20034;-92
2021/07/03 00:49:32;;;;;;;6.95;6.25;;;22.00;99.90;;;;;;5013058;28;20030;-92
2021/07/03 00:51:58;;;;;;;8.02;6.35;;;21.90;99.90;;;;;;5012067;28;20044;-92
2021/07/03 00:54:24;;;;;;;8.27;6.68;;;21.90;99.90;;;;;;5013408;28;20037;-91
2021/07/03 00:57:12;;;;;;;7.07;6.20;;;21.90;99.90;;;;;;5013389;28;20025;-92
2021/07/03 00:59:43;;;;;;;7.03;6.10;;;21.80;99.90;;;;;;5014346;28;20049;-92
2021/07/03 01:02:11;;;;;;;8.43;6.63;;;21.80;99.90;;;;;;5013298;28;20038;-91
2021/07/03 01:04:37;;;;;;;6.93;6.22;;;21.90;99.90;;;;;;5013501;28;20113;-92
2021/07/03 01:07:04;;;;;;;6.85;6.15;;;21.90;99.90;;;;;;5012414;28;20521;-92
2021/07/03 01:09:33;;;;;;;6.63;6.05;;;21.90;99.90;;;;;;5011919;28;20105;-93
2021/07/03 01:11:59;;;;;;;6.97;6.28;;;21.90;99.90;;;;;;5013754;28;20073;-91
2021/07/03 01:14:25;;;;;;;6.75;6.07;;;21.80;99.90;;;;;;5012695;28;20498;-92
2021/07/03 01:16:56;;;;;;;7.60;6.32;;;21.70;99.90;;;;;;5013523;28;20033;-93
2021/07/03 01:19:22;;;;;;;6.97;6.28;;;21.70;99.90;;;;;;5012330;28;20022;-92
2021/07/03 01:21:53;;;;;;;6.68;6.00;;;21.80;99.90;;;;;;5012746;28;20077;-92
2021/07/03 01:24:22;;;;;;;7.18;5.88;;;21.80;99.90;;;;;;5012770;28;20026;-91
2021/07/03 01:26:53;;;;;;;6.75;6.05;;;21.70;99.90;;;;;;5014271;28;20091;-91
2021/07/03 01:29:20;;;;;;;8.20;6.30;;;21.70;99.90;;;;;;5012549;28;20101;-92
2021/07/03 01:31:48;;;;;;;6.82;5.93;;;21.60;99.90;;;;;;5013979;28;20018;-91
2021/07/03 01:34:18;;;;;;;7.32;6.63;;;21.60;99.90;;;;;;5013863;28;20037;-92
2021/07/03 01:36:44;;;;;;;6.80;5.90;;;21.60;99.90;;;;;;5012373;28;20026;-91
2021/07/03 01:39:10;;;;;;;6.90;6.22;;;21.60;99.90;;;;;;5013599;28;20026;-91
2021/07/03 01:41:36;;;;;;;7.00;6.10;;;21.60;99.90;;;;;;5012662;28;20026;-92
2021/07/03 01:44:04;;;;;;;6.45;5.85;;;21.50;99.90;;;;;;5012224;28;20037;-92
2021/07/03 01:46:30;;;;;;;7.95;6.47;;;21.40;99.90;;;;;;5012371;28;20056;-90
2021/07/03 01:49:06;;;;;;;7.50;6.80;;;21.50;99.90;;;;;;5014191;28;20478;-92
2021/07/03 01:51:33;;;;;;;8.13;6.75;;;21.60;99.90;;;;;;4996105;28;20037;-91
2021/07/03 01:53:59;;;;;;;6.70;6.10;;;21.50;99.90;;;;;;5026978;28;20026;-92
2021/07/03 01:56:24;;;;;;;6.75;6.05;;;21.50;99.90;;;;;;5012516;28;20099;-92
2021/07/03 01:58:50;;;;;;;6.68;6.13;;;21.40;99.90;;;;;;5013799;28;20449;-92
2021/07/03 02:01:17;;;;;;;6.72;6.10;;;21.40;99.90;;;;;;5012916;28;20022;-91
2021/07/03 02:03:45;;;;;;;6.65;6.05;;;21.20;99.90;;;;;;5014462;28;20030;-92
2021/07/03 02:06:11;;;;;;;7.30;6.32;;;21.30;99.90;;;;;;5016821;28;20490;-92
2021/07/03 02:08:37;;;;;;;8.65;6.43;;;21.30;99.90;;;;;;5016648;28;20033;-91
2021/07/03 02:11:03;;;;;;;6.60;6.00;;;21.40;99.90;;;;;;5017524;28;20104;-92
2021/07/03 02:13:30;;;;;;;9.23;6.18;;;21.40;99.90;;;;;;5017437;28;20026;-92
2021/07/03 02:15:55;;;;;;;8.27;6.70;;;21.30;99.90;;;;;;5015742;28;20050;-91
2021/07/03 02:18:21;;;;;;;6.88;6.18;;;21.20;99.90;;;;;;5017304;28;20042;-92
2021/07/03 02:20:48;;;;;;;7.28;6.03;;;21.30;99.90;;;;;;5015036;28;20042;-92
2021/07/03 02:23:15;;;;;;;8.07;6.30;;;21.40;99.90;;;;;;5015796;28;20053;-91
2021/07/03 02:25:41;;;;;;;7.30;6.60;;;21.40;99.90;;;;;;5016792;28;20485;-92
2021/07/03 02:28:07;;;;;;;7.07;6.38;;;21.40;99.90;;;;;;5015774;28;20030;-92
2021/07/03 02:30:33;;;;;;;7.45;6.43;;;21.40;99.90;;;;;;5015883;28;20032;-92
2021/07/03 02:33:02;;;;;;;8.55;6.30;;;21.40;99.90;;;;;;5014919;28;20501;-92
2021/07/03 02:35:28;;;;;;;7.03;6.32;;;21.40;99.90;;;;;;5015366;28;20061;-92
2021/07/03 02:37:53;;;;;;;7.43;6.43;;;21.30;99.90;;;;;;5006747;28;20387;-92
2021/07/03 02:40:19;;;;;;;7.05;6.43;;;21.20;99.90;;;;;;4999925;28;20030;-91
2021/07/03 02:42:46;;;;;;;8.35;6.57;;;21.20;99.90;;;;;;5015258;28;20022;-92
2021/07/03 02:45:13;;;;;;;7.70;6.90;;;21.20;99.90;;;;;;5015342;28;20494;-92
2021/07/03 02:47:40;;;;;;;7.40;6.60;;;21.20;99.90;;;;;;5015054;28;20037;-92
2021/07/03 02:50:09;;;;;;;7.13;6.38;;;21.20;99.90;;;;;;5014899;28;20032;-92
2021/07/03 02:52:34;;;;;;;8.13;6.47;;;21.30;99.90;;;;;;5015199;28;20025;-92
2021/07/03 02:55:00;;;;;;;9.68;6.40;;;21.20;99.90;;;;;;5015111;28;20026;-92
2021/07/03 02:57:26;;;;;;;8.25;6.85;;;21.20;99.90;;;;;;5015515;28;20026;-92
2021/07/03 02:59:52;;;;;;;9.20;6.97;;;21.20;99.90;;;;;;5014755;28;20084;-91
2021/07/03 03:02:17;;;;;;;8.48;6.70;;;21.20;99.90;;;;;;5016639;28;20029;-92
2021/07/03 03:04:43;;;;;;;7.20;6.50;;;21.10;99.90;;;;;;5016089;28;20478;-91
2021/07/03 03:07:08;;;;;;;7.80;7.00;;;21.20;99.90;;;;;;5015896;28;20049;-92
2021/07/03 03:09:34;;;;;;;7.47;6.32;;;21.20;99.90;;;;;;5014575;28;20036;-92
2021/07/03 03:12:00;;;;;;;7.15;6.45;;;21.20;99.90;;;;;;5015982;28;20045;-92
2021/07/03 03:14:25;;;;;;;7.50;6.80;;;21.30;99.90;;;;;;5014610;28;20018;-91
2021/07/03 03:16:52;;;;;;;6.85;6.22;;;21.20;99.90;;;;;;5014453;28;20026;-91
2021/07/03 03:19:18;;;;;;;7.60;6.90;;;21.10;99.90;;;;;;5014648;28;20022;-92
2021/07/03 03:21:44;;;;;;;11.07;7.32;;;21.00;99.90;;;;;;5015802;28;20049;-92
2021/07/03 03:24:09;;;;;;;8.13;6.97;;;21.00;99.90;;;;;;5014573;28;20079;-92
2021/07/03 03:26:35;;;;;;;7.03;6.32;;;21.10;99.90;;;;;;5014401;28;20053;-92
2021/07/03 03:29:01;;;;;;;7.40;6.70;;;21.00;99.90;;;;;;5014813;28;20104;-92
2021/07/03 03:31:28;;;;;;;7.03;6.25;;;21.10;99.90;;;;;;5015577;28;20030;-91
2021/07/03 03:33:54;;;;;;;7.70;6.95;;;21.10;99.90;;;;;;5014073;28;20021;-92
2021/07/03 03:36:19;;;;;;;7.30;6.47;;;21.00;99.90;;;;;;5014279;28;20497;-92
2021/07/03 03:38:45;;;;;;;8.10;6.85;;;21.10;99.90;;;;;;5015209;28;20117;-92
2021/07/03 03:41:12;;;;;;;7.90;7.10;;;21.10;99.90;;;;;;5030472;28;20037;-91
2021/07/03 03:43:38;;;;;;;7.13;6.43;;;21.10;99.90;;;;;;5015615;28;20511;-92
2021/07/03 03:46:03;;;;;;;10.60;7.57;;;21.10;99.90;;;;;;5015329;28;20034;-91
2021/07/03 03:48:29;;;;;;;7.97;7.13;;;21.00;99.90;;;;;;5015304;28;20030;-92
2021/07/03 03:50:54;;;;;;;7.80;7.10;;;21.00;99.90;;;;;;5014774;28;20056;-92
2021/07/03 03:53:20;;;;;;;7.82;7.03;;;21.00;99.90;;;;;;5015269;28;20065;-92
2021/07/03 03:55:46;;;;;;;9.88;7.43;;;21.00;99.90;;;;;;5013516;28;20034;-92
2021/07/03 03:58:11;;;;;;;8.27;7.32;;;21.00;99.90;;;;;;5015191;28;20017;-92
2021/07/03 04:00:37;;;;;;;8.38;7.25;;;21.00;99.90;;;;;;5014025;28;20491;-92
2021/07/03 04:03:03;;;;;;;8.55;7.63;;;21.10;99.90;;;;;;5013244;28;20160;-92
2021/07/03 04:05:28;;;;;;;7.95;7.25;;;21.00;99.90;;;;;;5013466;28;20052;-91
2021/07/03 04:07:54;;;;;;;9.27;7.82;;;21.00;99.90;;;;;;5015044;28;20030;-92
2021/07/03 04:10:20;;;;;;;8.02;7.22;;;21.00;99.90;;;;;;5014576;28;20026;-91
2021/07/03 04:12:46;;;;;;;7.80;6.88;;;21.10;99.90;;;;;;5013945;28;20490;-91
2021/07/03 04:15:13;;;;;;;8.38;7.47;;;21.10;99.90;;;;;;5013207;28;20033;-92
2021/07/03 04:17:39;;;;;;;9.48;7.70;;;21.00;99.90;;;;;;5014243;28;20025;-91
2021/07/03 04:20:07;;;;;;;9.05;8.15;;;21.10;99.90;;;;;;5014150;28;20076;-91
2021/07/03 04:22:33;;;;;;;9.93;8.23;;;21.10;99.90;;;;;;5013582;28;20022;-91
2021/07/03 04:25:00;;;;;;;8.70;7.32;;;21.00;99.90;;;;;;5014630;28;20113;-92
2021/07/03 04:27:25;;;;;;;9.23;7.60;;;21.00;99.90;;;;;;5014497;28;20041;-92
2021/07/03 04:29:52;;;;;;;9.00;7.43;;;21.00;99.90;;;;;;5013452;28;20032;-92
2021/07/03 04:32:18;;;;;;;9.00;8.10;;;21.10;99.90;;;;;;5014517;28;20034;-91
2021/07/03 04:34:43;;;;;;;9.35;7.50;;;21.20;99.90;;;;;;5014187;28;20022;-92
2021/07/03 04:37:09;;;;;;;8.82;7.93;;;21.10;99.90;;;;;;5014356;28;20056;-91
2021/07/03 04:39:35;;;;;;;8.82;7.47;;;21.00;99.90;;;;;;5014565;28;20395;-92
2021/07/03 04:42:01;;;;;;;8.75;7.80;;;21.10;99.90;;;;;;5014001;28;20037;-92
2021/07/03 04:44:26;;;;;;;9.50;7.90;;;21.00;99.90;;;;;;5014292;28;20447;-92
2021/07/03 04:46:52;;;;;;;9.10;8.13;;;21.00;99.90;;;;;;5012615;28;20038;-91
2021/07/03 04:49:18;;;;;;;9.60;7.93;;;21.20;99.90;;;;;;5014274;28;20026;-92
2021/07/03 04:51:43;;;;;;;9.23;8.38;;;21.20;99.90;;;;;;5014148;28;20029;-92
2021/07/03 04:54:10;;;;;;;12.80;7.60;;;21.10;99.90;;;;;;5013233;28;20026;-92
2021/07/03 04:56:35;;;;;;;9.07;7.68;;;21.10;99.90;;;;;;5013947;28;20033;-91
2021/07/03 04:59:01;;;;;;;9.55;8.02;;;21.10;99.90;;;;;;5013004;28;20455;-91
2021/07/03 05:01:27;;;;;;;8.65;7.15;;;21.20;99.90;;;;;;5012630;28;20052;-91
2021/07/03 05:03:53;;;;;;;9.45;7.05;;;21.10;99.90;;;;;;5012699;28;20018;-91
2021/07/03 05:06:19;;;;;;;8.13;7.35;;;21.10;99.90;;;;;;5012101;28;20038;-92
2021/07/03 05:08:45;;;;;;;8.45;7.57;;;21.20;99.90;;;;;;5013916;28;20025;-92
2021/07/03 05:11:10;;;;;;;9.10;7.72;;;21.30;99.90;;;;;;5014156;28;20041;-92
2021/07/03 05:13:36;;;;;;;8.32;7.38;;;21.30;99.90;;;;;;5013833;28;20101;-92
2021/07/03 05:16:03;;;;;;;10.77;7.47;;;21.40;99.90;;;;;;5013856;28;20022;-92
2021/07/03 05:18:29;;;;;;;8.55;7.10;;;21.30;99.90;;;;;;5014310;28;20026;-91
2021/07/03 05:20:54;;;;;;;8.27;7.47;;;21.40;99.90;;;;;;5012151;28;20046;-91
2021/07/03 05:23:20;;;;;;;8.45;7.55;;;21.40;99.90;;;;;;5012766;28;20132;-92
2021/07/03 05:25:47;;;;;;;7.95;7.18;;;21.50;99.90;;;;;;5012391;28;20033;-92
2021/07/03 05:28:14;;;;;;;9.10;7.32;;;21.60;99.90;;;;;;5014073;28;20096;-92
2021/07/03 05:30:42;;;;;;;9.02;7.28;;;21.50;99.90;;;;;;5013788;28;20545;-91
2021/07/03 05:33:09;;;;;;;8.32;7.20;;;21.50;99.90;;;;;;5012938;28;20486;-92
2021/07/03 05:35:35;;;;;;;7.55;6.63;;;21.50;99.90;;;;;;5028730;28;20414;-91
2021/07/03 05:38:02;;;;;;;7.60;6.65;;;21.50;99.90;;;;;;5015537;28;20030;-96
2021/07/03 05:40:31;;;;;;;9.00;6.80;;;21.50;99.90;;;;;;5003991;28;20030;-96
2021/07/03 05:42:57;;;;;;;8.48;6.28;;;21.60;99.90;;;;;;5025518;28;20030;-96
2021/07/03 05:45:27;;;;;;;7.57;6.45;;;22.10;99.90;;;;;;5028138;28;20026;-96
2021/07/03 05:47:58;;;;;;;6.95;6.35;;;21.50;99.90;;;;;;5025220;28;20033;-96
2021/07/03 05:50:28;;;;;;;7.45;6.25;;;22.00;99.90;;;;;;5007267;28;20033;-96
2021/07/03 05:52:54;;;;;;;7.35;6.45;;;21.50;99.90;;;;;;4989490;28;20054;-96
2021/07/03 05:55:21;;;;;;;8.85;6.88;;;21.70;99.90;;;;;;5001584;28;20035;-96
2021/07/03 05:57:48;;;;;;;8.30;6.10;;;21.60;99.90;;;;;;4985328;28;20027;-96
2021/07/03 06:00:16;;;;;;;7.90;6.20;;;21.70;99.90;;;;;;4967064;28;20035;-96
2021/07/03 06:02:53;;;;;;;6.80;5.68;;;21.70;99.90;;;;;;4980336;28;20030;-96
2021/07/03 06:05:19;;;;;;;7.13;6.07;;;21.80;99.90;;;;;;4984713;28;20129;-96
2021/07/03 06:07:53;;;;;;;8.90;6.45;;;21.90;99.90;;;;;;4968782;28;20039;-96
2021/07/03 06:10:31;;;;;;;6.57;5.95;;;21.90;99.90;;;;;;4990345;28;20048;-96
2021/07/03 06:12:58;;;;;;;6.78;6.05;;;22.00;99.90;;;;;;5006171;28;20038;-96
2021/07/03 06:15:46;;;;;;;12.02;6.13;;;22.00;99.90;;;;;;5026927;28;20057;-96
2021/07/03 06:18:12;;;;;;;6.85;5.65;;;22.20;99.90;;;;;;4992716;28;20062;-96
2021/07/03 06:20:48;;;;;;;7.20;5.88;;;22.50;99.90;;;;;;4993809;28;20468;-96
2021/07/03 06:23:24;;;;;;;12.88;6.20;;;22.60;99.90;;;;;;4995624;28;20052;-96
2021/07/03 06:25:59;;;;;;;8.70;5.88;;;22.60;99.90;;;;;;4990181;28;20054;-96
2021/07/03 06:28:31;;;;;;;6.88;5.70;;;23.10;99.90;;;;;;4974096;28;20058;-96
2021/07/03 06:31:21;;;;;;;7.57;5.88;;;22.90;99.90;;;;;;4989253;28;20042;-96
2021/07/03 06:34:10;;;;;;;6.15;5.28;;;23.20;99.90;;;;;;4968471;28;20043;-96
2021/07/03 06:36:41;;;;;;;5.65;5.15;;;23.10;99.90;;;;;;4966147;28;20055;-96
2021/07/03 06:39:07;;;;;;;5.35;4.85;;;23.10;99.90;;;;;;4951352;29;20035;-96
2021/07/03 06:42:24;;;;;;;9.43;5.32;;;22.80;99.90;;;;;;4975394;28;20537;-96
2021/07/03 06:44:59;;;;;;;5.75;4.82;;;23.20;99.90;;;;;;4984734;28;20031;-96
2021/07/03 06:47:27;;;;;;;5.43;4.93;;;23.30;99.90;;;;;;4985761;28;20058;-96
2021/07/03 06:49:56;;;;;;;9.35;5.38;;;23.80;99.90;;;;;;4985306;28;20055;-96
2021/07/03 06:52:22;;;;;;;5.60;4.90;;;23.60;99.90;;;;;;4985503;28;20031;-96
2021/07/03 06:54:50;;;;;;;6.05;5.45;;;23.20;99.90;;;;;;4987349;28;20027;-96
2021/07/03 06:57:23;;;;;;;8.93;5.93;;;23.10;99.90;;;;;;4987204;28;20031;-96
2021/07/03 06:59:51;;;;;;;7.97;5.20;;;22.80;99.90;;;;;;4988084;28;20122;-96
2021/07/03 07:02:38;;;;;;;7.80;5.80;;;22.80;99.90;;;;;;4986011;28;20042;-96
2021/07/03 07:05:29;;;;;;;7.97;5.63;;;22.60;99.90;;;;;;4985614;28;20063;-96
2021/07/03 07:08:00;;;;;;;9.65;6.13;;;22.40;99.90;;;;;;4984161;28;20035;-96
2021/07/03 07:10:51;;;;;;;8.85;7.18;;;22.40;99.90;;;;;;4986876;28;20027;-96
2021/07/03 07:13:18;;;;;;;9.68;6.47;;;22.00;99.90;;;;;;4969235;28;20035;-96
2021/07/03 07:15:50;;;;;;;8.60;6.90;;;22.40;99.90;;;;;;4984989;28;20094;-96
2021/07/03 07:18:44;;;;;;;9.75;6.75;;;22.40;99.90;;;;;;4965516;29;20559;-96
2021/07/03 07:21:17;;;;;;;8.40;7.50;;;22.50;99.90;;;;;;5008435;28;20054;-96
2021/07/03 07:23:44;;;;;;;8.52;7.65;;;22.50;99.90;;;;;;5020743;28;20041;-96
2021/07/03 07:26:11;;;;;;;9.77;7.75;;;22.60;99.90;;;;;;5020018;28;20026;-96
2021/07/03 07:28:41;;;;;;;9.18;8.30;;;22.60;99.90;;;;;;5020963;28;20033;-96
2021/07/03 07:31:07;;;;;;;9.85;8.77;;;22.60;99.90;;;;;;5017615;28;20037;-96
2021/07/03 07:33:33;;;;;;;11.45;8.75;;;22.60;99.90;;;;;;5016332;28;20037;-96
2021/07/03 07:35:59;;;;;;;9.55;8.10;;;22.50;99.90;;;;;;5016994;28;20026;-96
2021/07/03 07:38:57;;;;;;;9.73;8.02;;;22.40;99.90;;;;;;5031362;28;20026;-96
2021/07/03 07:46:37;;;;;;;8.15;7.30;;;22.30;99.90;;;;;;6059543;23;20021;-96
2021/07/03 07:51:32;;;;;;;8.07;7.25;;;22.50;99.90;;;;;;4995719;28;20047;-96
2021/07/03 07:53:57;;;;;;;9.43;7.40;;;22.60;99.90;;;;;;4994563;28;20038;-96
2021/07/03 07:56:23;;;;;;;8.13;7.00;;;22.60;99.90;;;;;;4995220;28;20498;-96
2021/07/03 07:58:49;;;;;;;8.07;7.15;;;22.60;99.90;;;;;;4995377;28;20403;-96
2021/07/03 08:01:15;;;;;;;8.48;7.10;;;22.50;99.90;;;;;;4993831;28;20026;-96
2021/07/03 08:03:41;;;;;;;8.27;7.28;;;22.60;99.90;;;;;;4995279;28;20030;-96
2021/07/03 08:06:07;;;;;;;9.23;7.43;;;22.40;99.90;;;;;;4993645;28;20042;-96
2021/07/03 08:08:33;;;;;;;7.25;6.63;;;22.40;99.90;;;;;;4997768;28;20453;-96
2021/07/03 08:11:01;;;;;;;8.57;7.70;;;22.60;99.90;;;;;;4997896;28;20038;-96
2021/07/03 08:13:26;;;;;;;8.57;7.55;;;22.90;99.90;;;;;;4996535;28;20026;-96
2021/07/03 08:15:52;;;;;;;9.90;8.90;;;22.60;99.90;;;;;;5000431;28;20026;-96
2021/07/03 08:18:22;;;;;;;9.07;8.20;;;22.30;99.90;;;;;;5002348;28;20031;-96
2021/07/03 08:20:50;;;;;;;10.93;8.55;;;22.20;99.90;;;;;;4992237;28;20035;-96
2021/07/03 08:23:16;;;;;;;14.48;9.68;;;22.10;99.90;;;;;;4987999;28;20030;-96
2021/07/03 08:31:13;;;;;;;13.75;10.35;;;22.20;99.90;;;;;;5082221;23;20049;-96
2021/07/03 08:36:20;;;;;;;13.13;10.57;;;21.90;99.90;;;;;;5068863;23;20054;-96
2021/07/03 08:41:22;;;;;;;10.93;9.30;;;22.10;99.90;;;;;;5460059;23;20057;-95
2021/07/03 08:43:49;;;;;;;12.00;9.55;;;22.20;99.90;;;;;;5026315;28;20042;-94
2021/07/03 08:46:19;;;;;;;12.00;10.63;;;22.30;99.90;;;;;;5012939;28;20026;-94
2021/07/03 08:48:47;;;;;;;11.85;10.02;;;22.50;99.90;;;;;;5012711;28;20040;-94
2021/07/03 08:51:12;;;;;;;10.70;9.70;;;22.60;99.90;;;;;;5010791;28;20052;-95
2021/07/03 08:53:38;;;;;;;12.05;9.93;;;22.70;99.90;;;;;;5013548;28;20057;-94
2021/07/03 08:56:04;;;;;;;12.23;9.23;;;22.90;99.90;;;;;;5012457;28;20032;-95
2021/07/03 08:58:30;;;;;;;10.40;9.32;;;23.20;99.90;;;;;;5014539;28;20486;-93
2021/07/03 09:00:55;;;;;;;9.80;8.82;;;23.30;99.90;;;;;;5014644;28;20397;-94
2021/07/03 09:03:26;;;;;;;9.07;8.18;;;23.40;99.90;;;;;;5012922;28;20033;-93
2021/07/03 09:05:55;;;;;;;8.82;7.90;;;23.60;99.90;;;;;;5009352;28;20037;-94
2021/07/03 09:08:22;;;;;;;12.10;8.00;;;23.70;99.90;;;;;;5009722;28;20022;-93
2021/07/03 09:10:58;;;;;;;9.05;8.15;;;23.80;99.90;;;;;;5013445;28;20034;-93
2021/07/03 09:13:24;;;;;;;9.18;8.25;;;24.00;99.90;;;;;;5009069;28;20033;-93
2021/07/03 09:15:49;;;;;;;9.60;8.65;;;23.90;99.90;;;;;;5013513;28;20029;-94
2021/07/03 09:18:18;;;;;;;11.90;9.57;;;23.80;99.90;;;;;;5013565;28;20033;-93
2021/07/03 09:21:23;;;;;;;10.23;9.23;;;23.60;99.90;;;;;;5013525;28;20062;-96
2021/07/03 09:23:49;;;;;;;9.82;8.23;;;23.30;99.90;;;;;;5017150;28;20041;-96
2021/07/03 09:26:15;;;;;;;9.70;8.45;;;23.10;99.90;;;;;;5022109;28;20054;-96
2021/07/03 09:28:44;;;;;;;10.07;8.25;;;23.00;99.90;;;;;;5012942;28;20037;-96
2021/07/03 09:31:12;;;;;;;13.18;9.55;;;22.90;99.90;;;;;;5008785;28;20513;-95
2021/07/03 09:33:47;;;;;;;12.95;9.43;;;22.90;99.90;;;;;;5012956;28;20026;-96
2021/07/03 09:36:14;;;;;;;9.30;8.43;;;23.00;99.90;;;;;;5014615;28;20033;-96
2021/07/03 09:38:48;;;;;;;9.88;8.88;;;22.90;99.90;;;;;;5015428;28;20030;-96
2021/07/03 09:41:29;;;;;;;9.57;8.57;;;22.80;99.90;;;;;;5014421;28;20494;-95
2021/07/03 09:43:56;;;;;;;11.27;9.55;;;22.80;99.90;;;;;;5012967;28;20025;-96
2021/07/03 09:46:49;;;;;;;9.30;8.40;;;22.70;99.90;;;;;;5014726;28;20030;-96
2021/07/03 09:49:21;;;;;;;11.75;8.25;;;22.60;99.90;;;;;;5028618;28;20033;-91
2021/07/03 09:55:24;;;;;;;9.00;8.10;;;22.70;99.90;;;;;;5010145;28;20398;-96
2021/07/03 09:57:49;;;;;;;9.07;8.18;;;22.70;99.90;;;;;;5018621;28;20030;-96
2021/07/03 10:00:24;;;;;;;10.20;8.52;;;22.70;99.90;;;;;;5030929;28;20022;-96
2021/07/03 10:02:55;;;;;;;10.27;8.95;;;22.80;99.90;;;;;;5029308;28;20079;-96
2021/07/03 10:06:02;;;;;;;11.75;9.85;;;22.90;99.90;;;;;;5027681;28;20038;-96
2021/07/03 10:08:32;;;;;;;10.00;8.90;;;22.80;99.90;;;;;;5023314;28;20057;-96
2021/07/03 10:11:11;;;;;;;11.05;9.95;;;22.70;99.90;;;;;;5024605;28;20034;-96
2021/07/03 10:13:40;;;;;;;10.13;8.65;;;22.90;99.90;;;;;;5018939;28;20034;-94
2021/07/03 10:16:24;;;;;;;11.02;8.25;;;22.70;99.90;;;;;;5029436;28;20090;-96
2021/07/03 10:19:20;;;;;;;11.80;9.52;;;22.90;99.90;;;;;;5035927;28;20102;-96
2021/07/03 10:32:32;;;;;;;12.10;9.45;;;23.30;99.90;;;;;;4983226;28;20095;-94
2021/07/03 10:35:20;;;;;;;10.32;9.27;;;23.00;99.90;;;;;;4984563;28;20046;-95
2021/07/03 10:37:46;;;;;;;11.23;9.63;;;23.10;99.90;;;;;;4982401;28;20034;-90
2021/07/03 10:40:22;;;;;;;12.40;9.70;;;23.00;99.90;;;;;;4975573;28;20035;-95
2021/07/03 10:42:50;;;;;;;12.98;9.93;;;23.20;99.90;;;;;;4972525;28;20038;-95
2021/07/03 10:45:23;;;;;;;11.65;9.70;;;23.20;99.90;;;;;;4977087;28;20022;-93
2021/07/03 10:47:54;;;;;;;12.63;9.15;;;23.20;99.90;;;;;;4979824;28;20039;-95
2021/07/03 10:50:23;;;;;;;11.77;9.65;;;23.10;99.90;;;;;;4978556;28;20126;-90
2021/07/03 10:52:49;;;;;;;11.38;10.20;;;23.00;99.90;;;;;;4975501;28;20031;-90
2021/07/03 10:55:27;;;;;;;11.38;10.05;;;22.90;99.90;;;;;;4975295;28;20030;-90
2021/07/03 10:57:53;;;;;;;14.27;10.57;;;22.80;99.90;;;;;;4971456;28;20030;-90
2021/07/03 11:00:24;;;;;;;12.07;10.27;;;22.80;99.90;;;;;;4970191;28;20512;-90
2021/07/03 11:02:50;;;;;;;11.40;10.20;;;22.80;1.00;;;;;;4975407;28;20037;-91
2021/07/03 11:05:16;;;;;;;13.18;11.18;;;22.90;1.00;;;;;;4976081;28;20086;-90
2021/07/03 11:07:43;;;;;;;11.63;10.43;;;22.80;1.00;;;;;;4975296;28;20047;-90
2021/07/03 11:10:11;;;;;;;11.65;9.85;;;22.80;1.00;;;;;;4991023;28;20022;-90
2021/07/03 11:12:46;;;;;;;11.25;10.05;;;22.80;1.00;;;;;;4976279;28;20490;-90
2021/07/03 11:15:15;;;;;;;10.48;9.40;;;22.80;1.00;;;;;;4975119;28;20019;-90
2021/07/03 11:17:40;;;;;;;12.18;10.18;;;22.80;1.00;;;;;;4973908;28;20447;-90
2021/07/03 11:20:06;;;;;;;12.27;10.40;;;22.80;1.00;;;;;;4975076;28;20022;-90
2021/07/03 11:22:32;;;;;;;10.43;9.32;;;22.70;1.00;;;;;;4974006;28;20074;-90
2021/07/03 11:24:59;;;;;;;12.32;10.20;;;22.80;1.00;;;;;;4975482;28;20101;-91
2021/07/03 11:27:36;;;;;;;11.63;9.70;;;22.80;1.00;;;;;;4974721;28;20265;-90
2021/07/03 11:30:22;;;;;;;10.80;9.48;;;22.80;1.00;;;;;;4975107;28;20037;-89
2021/07/03 11:32:56;;;;;;;12.02;10.18;;;22.90;1.00;;;;;;4974161;28;20407;-90
2021/07/03 11:35:23;;;;;;;11.35;10.02;;;22.90;1.00;;;;;;4974918;28;20034;-90
2021/07/03 11:37:49;;;;;;;12.02;10.13;;;22.80;1.00;;;;;;4972937;28;20026;-90
2021/07/03 11:40:21;;;;;;;9.90;8.35;;;22.70;1.00;;;;;;4974820;28;20118;-90
2021/07/03 11:42:50;;;;;;;12.73;9.90;;;22.70;99.90;;;;;;4975850;28;20023;-90
2021/07/03 11:45:18;;;;;;;9.38;8.38;;;22.60;1.00;;;;;;4974708;28;20097;-91
2021/07/03 11:47:46;;;;;;;8.82;7.50;;;22.50;99.90;;;;;;4974210;28;20122;-90
2021/07/03 11:50:26;;;;;;;10.07;8.90;;;22.40;99.90;;;;;;4974786;28;20078;-91
2021/07/03 11:52:54;;;;;;;11.95;8.73;;;22.40;99.90;;;;;;4970049;28;20034;-90
2021/07/03 11:55:24;;;;;;;9.55;8.60;;;22.20;1.00;;;;;;4975144;28;20415;-90
2021/07/03 11:57:50;;;;;;;9.30;8.40;;;22.30;1.00;;;;;;4971175;28;20027;-90
2021/07/03 12:00:20;;;;;;;9.20;8.20;;;22.20;1.00;;;;;;4974697;28;20074;-90
2021/07/03 12:02:46;;;;;;;12.15;8.80;;;22.20;1.00;;;;;;4974062;28;20084;-90
2021/07/03 12:05:14;;;;;;;9.95;8.95;;;22.10;1.00;;;;;;4973392;28;20031;-90
2021/07/03 12:07:40;;;;;;;9.45;8.45;;;22.10;1.00;;;;;;4974231;28;20042;-91
2021/07/03 12:10:11;;;;;;;9.70;8.80;;;22.20;1.00;;;;;;4973153;28;20035;-90
2021/07/03 12:12:38;;;;;;;10.48;9.30;;;22.40;1.00;;;;;;4988070;28;20091;-90
2021/07/03 12:15:06;;;;;;;9.55;8.43;;;22.40;1.00;;;;;;4973747;28;20029;-89
2021/07/03 12:17:32;;;;;;;10.95;9.40;;;22.40;1.00;;;;;;4974240;28;20503;-90
2021/07/03 12:20:09;;;;;;;10.23;8.75;;;22.50;1.00;;;;;;4973044;28;20027;-90
2021/07/03 12:22:35;;;;;;;9.38;8.48;;;22.30;1.00;;;;;;4974986;28;20031;-90
2021/07/03 12:25:13;;;;;;;12.23;9.52;;;22.20;1.00;;;;;;4972833;28;20037;-90
2021/07/03 12:27:38;;;;;;;9.90;8.90;;;22.20;1.00;;;;;;4973473;28;20051;-90
2021/07/03 12:30:06;;;;;;;11.70;9.50;;;22.30;1.00;;;;;;4972081;28;20085;-89
2021/07/03 12:32:32;;;;;;;9.95;8.95;;;22.30;1.00;;;;;;4973896;28;20034;-90
2021/07/03 12:35:09;;;;;;;10.90;9.23;;;22.20;1.00;;;;;;4972555;28;20070;-90
2021/07/03 12:37:35;;;;;;;11.43;10.02;;;22.20;1.00;;;;;;4973627;28;20057;-89
2021/07/03 12:40:16;;;;;;;9.60;8.43;;;22.20;1.00;;;;;;4974071;28;20219;-89
2021/07/03 12:42:44;;;;;;;9.38;8.38;;;22.20;1.00;;;;;;4972318;28;20069;-90
2021/07/03 12:45:11;;;;;;;11.63;9.43;;;22.00;1.00;;;;;;4971807;28;20034;-90
2021/07/03 12:47:38;;;;;;;10.15;9.15;;;22.10;1.00;;;;;;4973282;28;20406;-89
2021/07/03 12:50:07;;;;;;;10.68;9.68;;;22.30;1.00;;;;;;4973804;28;20491;-90
2021/07/03 12:52:41;;;;;;;10.35;9.10;;;22.40;1.00;;;;;;4969123;28;20114;-90
2021/07/03 12:55:08;;;;;;;10.02;8.63;;;22.40;1.00;;;;;;4986701;28;20050;-89
2021/07/03 12:57:45;;;;;;;12.13;9.45;;;22.20;1.00;;;;;;4972356;28;20027;-90
2021/07/03 13:00:12;;;;;;;9.07;8.18;;;22.30;1.00;;;;;;4972959;28;20486;-90
2021/07/03 13:02:38;;;;;;;8.65;7.85;;;22.00;1.00;;;;;;4973788;28;20023;-89
2021/07/03 13:05:06;;;;;;;8.40;7.60;;;21.90;1.00;;;;;;4973377;28;20106;-90
2021/07/03 13:07:32;;;;;;;7.03;6.40;;;22.00;1.00;;;;;;4973868;28;20043;-90
2021/07/03 13:09:58;;;;;;;8.25;7.30;;;21.60;1.00;;;;;;4972340;28;20022;-91
2021/07/03 13:12:24;;;;;;;9.57;8.30;;;21.50;1.00;;;;;;4972288;28;20034;-90
2021/07/03 13:14:49;;;;;;;8.90;7.80;;;21.70;1.00;;;;;;4973157;28;20654;-90
2021/07/03 13:17:15;;;;;;;8.27;7.47;;;21.70;1.00;;;;;;4973700;28;20049;-90
2021/07/03 13:19:41;;;;;;;8.05;7.25;;;21.70;1.00;;;;;;4973308;28;20104;-90
2021/07/03 13:22:07;;;;;;;7.32;6.38;;;21.70;1.00;;;;;;4973660;28;20526;-90
2021/07/03 13:24:32;;;;;;;10.68;7.47;;;21.70;99.90;;;;;;4967524;28;20027;-89
2021/07/03 13:26:58;;;;;;;9.05;8.13;;;21.60;1.00;;;;;;4970242;28;20053;-89
2021/07/03 13:29:24;;;;;;;10.65;8.57;;;21.60;1.00;;;;;;4972646;28;20070;-89
2021/07/03 13:31:49;;;;;;;9.10;8.30;;;21.60;1.00;;;;;;4971706;28;20142;-89
2021/07/03 13:34:17;;;;;;;13.23;8.60;;;21.50;1.00;;;;;;4972703;28;20049;-89
2021/07/03 13:36:43;;;;;;;11.57;9.07;;;21.60;1.00;;;;;;4973740;28;20041;-89